sensor_id;sensor_type;location;lat;lon;timestamp;pressure;altitude;pressure_sealevel;temperature;humidity
24154;BME280;12312;53.362;-1.518;2022-12-29T00:01:26;96216.56;;;7.92;95.31
24154;BME280;12312;53.362;-1.518;2022-12-29T00:03:51;96221.03;;;7.92;95.45
24154;BME280;12312;53.362;-1.518;2022-12-29T00:06:18;96218.06;;;7.87;95.26
24154;BME280;12312;53.362;-1.518;2022-12-29T00:08:49;96213.59;;;7.87;95.50
24154;BME280;12312;53.362;-1.518;2022-12-29T00:11:17;96201.03;;;7.89;95.33
24154;BME280;12312;53.362;-1.518;2022-12-29T00:13:43;96227.84;;;7.86;95.93
24154;BME280;12312;53.362;-1.518;2022-12-29T00:16:30;96240.41;;;7.84;96.07
24154;BME280;12312;53.362;-1.518;2022-12-29T00:18:57;96227.50;;;7.89;95.79
24154;BME280;12312;53.362;-1.518;2022-12-29T00:21:24;96231.81;;;7.82;96.46
24154;BME280;12312;53.362;-1.518;2022-12-29T00:24:18;96218.25;;;7.85;96.22
24154;BME280;12312;53.362;-1.518;2022-12-29T00:29:48;96209.31;;;7.78;95.78
24154;BME280;12312;53.362;-1.518;2022-12-29T00:32:32;96194.59;;;7.76;95.97
24154;BME280;12312;53.362;-1.518;2022-12-29T00:35:28;96147.78;;;7.76;95.63
24154;BME280;12312;53.362;-1.518;2022-12-29T00:37:55;96199.06;;;7.75;96.24
24154;BME280;12312;53.362;-1.518;2022-12-29T00:40:41;96192.78;;;7.68;96.68
24154;BME280;12312;53.362;-1.518;2022-12-29T00:43:27;96179.72;;;7.67;96.62
24154;BME280;12312;53.362;-1.518;2022-12-29T00:46:11;96191.44;;;7.64;96.28
24154;BME280;12312;53.362;-1.518;2022-12-29T00:48:38;96179.56;;;7.68;96.26
24154;BME280;12312;53.362;-1.518;2022-12-29T00:51:23;96191.13;;;7.67;95.45
24154;BME280;12312;53.362;-1.518;2022-12-29T00:53:49;96185.50;;;7.70;95.75
24154;BME280;12312;53.362;-1.518;2022-12-29T00:56:15;96175.22;;;7.67;95.71
24154;BME280;12312;53.362;-1.518;2022-12-29T00:58:41;96181.53;;;7.66;96.53
24154;BME280;12312;53.362;-1.518;2022-12-29T01:01:08;96185.53;;;7.62;96.84
24154;BME280;12312;53.362;-1.518;2022-12-29T01:03:35;96186.03;;;7.58;97.03
24154;BME280;12312;53.362;-1.518;2022-12-29T01:06:07;96191.44;;;7.64;97.49
24154;BME280;12312;53.362;-1.518;2022-12-29T01:08:34;96190.13;;;7.60;97.92
24154;BME280;12312;53.362;-1.518;2022-12-29T01:11:07;96171.13;;;7.65;97.74
24154;BME280;12312;53.362;-1.518;2022-12-29T01:13:35;96177.25;;;7.65;97.61
24154;BME280;12312;53.362;-1.518;2022-12-29T01:16:03;96171.94;;;7.65;97.65
24154;BME280;12312;53.362;-1.518;2022-12-29T01:18:28;96169.97;;;7.59;97.96
24154;BME280;12312;53.362;-1.518;2022-12-29T01:21:03;96174.59;;;7.57;98.17
24154;BME280;12312;53.362;-1.518;2022-12-29T01:23:29;96168.34;;;7.50;97.75
24154;BME280;12312;53.362;-1.518;2022-12-29T01:25:56;96177.41;;;7.48;97.30
24154;BME280;12312;53.362;-1.518;2022-12-29T01:28:22;96173.13;;;7.47;97.98
24154;BME280;12312;53.362;-1.518;2022-12-29T01:30:48;96192.16;;;7.50;97.65
24154;BME280;12312;53.362;-1.518;2022-12-29T01:33:14;96177.56;;;7.46;97.67
24154;BME280;12312;53.362;-1.518;2022-12-29T01:35:40;96173.13;;;7.47;97.35
24154;BME280;12312;53.362;-1.518;2022-12-29T01:38:06;96198.75;;;7.46;97.92
24154;BME280;12312;53.362;-1.518;2022-12-29T01:40:33;96194.97;;;7.49;97.85
24154;BME280;12312;53.362;-1.518;2022-12-29T01:42:58;96197.44;;;7.42;97.34
24154;BME280;12312;53.362;-1.518;2022-12-29T01:45:24;96208.19;;;7.49;97.12
24154;BME280;12312;53.362;-1.518;2022-12-29T01:47:57;96221.91;;;7.44;98.56
24154;BME280;12312;53.362;-1.518;2022-12-29T01:50:31;96224.22;;;7.39;98.97
24154;BME280;12312;53.362;-1.518;2022-12-29T01:53:14;96221.59;;;7.47;99.10
24154;BME280;12312;53.362;-1.518;2022-12-29T01:55:49;96240.41;;;7.36;100.00
24154;BME280;12312;53.362;-1.518;2022-12-29T01:58:18;96240.41;;;7.20;100.00
24154;BME280;12312;53.362;-1.518;2022-12-29T02:00:45;96249.97;;;7.13;100.00
24154;BME280;12312;53.362;-1.518;2022-12-29T02:03:12;96264.34;;;7.10;100.00
24154;BME280;12312;53.362;-1.518;2022-12-29T02:05:44;96280.69;;;6.98;100.00
24154;BME280;12312;53.362;-1.518;2022-12-29T02:08:12;96283.44;;;6.88;100.00
24154;BME280;12312;53.362;-1.518;2022-12-29T02:10:39;96288.88;;;6.79;100.00
24154;BME280;12312;53.362;-1.518;2022-12-29T02:13:06;96319.25;;;6.75;100.00
24154;BME280;12312;53.362;-1.518;2022-12-29T02:15:54;96322.03;;;6.73;100.00
24154;BME280;12312;53.362;-1.518;2022-12-29T02:21:39;96366.84;;;5.53;100.00
24154;BME280;12312;53.362;-1.518;2022-12-29T02:29:26;96366.25;;;4.70;100.00
24154;BME280;12312;53.362;-1.518;2022-12-29T02:32:13;96357.50;;;4.70;100.00
24154;BME280;12312;53.362;-1.518;2022-12-29T02:37:30;96369.88;;;4.69;100.00
24154;BME280;12312;53.362;-1.518;2022-12-29T02:40:06;96385.66;;;4.69;100.00
24154;BME280;12312;53.362;-1.518;2022-12-29T02:42:43;96375.13;;;4.69;100.00
24154;BME280;12312;53.362;-1.518;2022-12-29T02:50:23;96356.00;;;4.67;100.00
24154;BME280;12312;53.362;-1.518;2022-12-29T02:53:00;96370.16;;;4.66;100.00
24154;BME280;12312;53.362;-1.518;2022-12-29T02:55:27;96367.91;;;4.71;100.00
24154;BME280;12312;53.362;-1.518;2022-12-29T03:14:56;96374.56;;;5.20;100.00
24154;BME280;12312;53.362;-1.518;2022-12-29T03:18:32;96370.38;;;5.27;100.00
24154;BME280;12312;53.362;-1.518;2022-12-29T03:21:24;96376.47;;;5.27;100.00
24154;BME280;12312;53.362;-1.518;2022-12-29T03:24:13;96375.81;;;5.25;100.00
24154;BME280;12312;53.362;-1.518;2022-12-29T03:26:41;96386.34;;;5.25;100.00
24154;BME280;12312;53.362;-1.518;2022-12-29T03:29:08;96387.72;;;5.29;100.00
24154;BME280;12312;53.362;-1.518;2022-12-29T03:31:37;96389.75;;;5.35;100.00
24154;BME280;12312;53.362;-1.518;2022-12-29T03:34:04;96389.44;;;5.38;100.00
24154;BME280;12312;53.362;-1.518;2022-12-29T03:36:38;96389.53;;;5.46;100.00
24154;BME280;12312;53.362;-1.518;2022-12-29T03:39:09;96397.53;;;5.54;100.00
24154;BME280;12312;53.362;-1.518;2022-12-29T03:42:01;96404.63;;;5.54;100.00
24154;BME280;12312;53.362;-1.518;2022-12-29T03:44:41;96415.38;;;5.61;100.00
24154;BME280;12312;53.362;-1.518;2022-12-29T03:47:12;96419.56;;;5.63;100.00
24154;BME280;12312;53.362;-1.518;2022-12-29T03:49:39;96418.41;;;5.66;100.00
24154;BME280;12312;53.362;-1.518;2022-12-29T03:52:04;96420.09;;;5.67;100.00
24154;BME280;12312;53.362;-1.518;2022-12-29T03:54:31;96421.19;;;5.64;100.00
24154;BME280;12312;53.362;-1.518;2022-12-29T03:56:56;96421.88;;;5.66;100.00
24154;BME280;12312;53.362;-1.518;2022-12-29T03:59:22;96418.13;;;5.69;100.00
24154;BME280;12312;53.362;-1.518;2022-12-29T04:01:47;96434.25;;;5.66;100.00
24154;BME280;12312;53.362;-1.518;2022-12-29T04:04:14;96441.84;;;5.69;100.00
24154;BME280;12312;53.362;-1.518;2022-12-29T04:06:40;96446.47;;;5.67;100.00
24154;BME280;12312;53.362;-1.518;2022-12-29T04:09:06;96445.09;;;5.63;100.00
24154;BME280;12312;53.362;-1.518;2022-12-29T04:11:32;96443.38;;;5.71;100.00
24154;BME280;12312;53.362;-1.518;2022-12-29T04:13:57;96460.13;;;5.80;100.00
24154;BME280;12312;53.362;-1.518;2022-12-29T04:16:23;96448.06;;;5.77;100.00
24154;BME280;12312;53.362;-1.518;2022-12-29T04:18:49;96466.38;;;5.79;100.00
24154;BME280;12312;53.362;-1.518;2022-12-29T04:21:14;96486.94;;;5.85;100.00
24154;BME280;12312;53.362;-1.518;2022-12-29T04:23:40;96488.72;;;5.84;100.00
24154;BME280;12312;53.362;-1.518;2022-12-29T04:26:06;96490.22;;;5.87;100.00
24154;BME280;12312;53.362;-1.518;2022-12-29T04:28:32;96500.84;;;5.77;100.00
24154;BME280;12312;53.362;-1.518;2022-12-29T04:30:58;96515.53;;;5.80;100.00
24154;BME280;12312;53.362;-1.518;2022-12-29T04:33:24;96529.72;;;5.79;100.00
24154;BME280;12312;53.362;-1.518;2022-12-29T04:35:50;96527.72;;;5.81;100.00
24154;BME280;12312;53.362;-1.518;2022-12-29T04:38:18;96539.16;;;5.72;100.00
24154;BME280;12312;53.362;-1.518;2022-12-29T04:40:44;96541.38;;;5.76;100.00
24154;BME280;12312;53.362;-1.518;2022-12-29T04:43:10;96550.25;;;5.85;100.00
24154;BME280;12312;53.362;-1.518;2022-12-29T04:45:43;96540.25;;;5.79;100.00
24154;BME280;12312;53.362;-1.518;2022-12-29T04:48:09;96555.25;;;5.78;100.00
24154;BME280;12312;53.362;-1.518;2022-12-29T04:50:36;96554.41;;;5.87;100.00
24154;BME280;12312;53.362;-1.518;2022-12-29T04:53:01;96563.66;;;5.91;100.00
24154;BME280;12312;53.362;-1.518;2022-12-29T04:55:27;96577.72;;;5.92;100.00
24154;BME280;12312;53.362;-1.518;2022-12-29T04:57:52;96559.69;;;5.87;100.00
24154;BME280;12312;53.362;-1.518;2022-12-29T05:00:19;96574.38;;;5.90;100.00
24154;BME280;12312;53.362;-1.518;2022-12-29T05:02:44;96569.38;;;5.87;100.00
24154;BME280;12312;53.362;-1.518;2022-12-29T05:05:10;96595.78;;;5.87;100.00
24154;BME280;12312;53.362;-1.518;2022-12-29T05:07:36;96608.47;;;5.83;100.00
24154;BME280;12312;53.362;-1.518;2022-12-29T05:10:02;96601.63;;;5.81;100.00
24154;BME280;12312;53.362;-1.518;2022-12-29T05:12:32;96617.44;;;5.90;100.00
24154;BME280;12312;53.362;-1.518;2022-12-29T05:14:58;96611.88;;;5.93;100.00
24154;BME280;12312;53.362;-1.518;2022-12-29T05:17:23;96610.72;;;5.96;100.00
24154;BME280;12312;53.362;-1.518;2022-12-29T05:19:49;96615.72;;;5.99;100.00
24154;BME280;12312;53.362;-1.518;2022-12-29T05:22:15;96618.56;;;5.88;100.00
24154;BME280;12312;53.362;-1.518;2022-12-29T05:24:40;96644.97;;;5.88;100.00
24154;BME280;12312;53.362;-1.518;2022-12-29T05:27:06;96635.78;;;5.92;100.00
24154;BME280;12312;53.362;-1.518;2022-12-29T05:29:32;96641.00;;;6.01;100.00
24154;BME280;12312;53.362;-1.518;2022-12-29T05:31:57;96644.97;;;5.88;100.00
24154;BME280;12312;53.362;-1.518;2022-12-29T05:34:23;96659.81;;;5.89;100.00
24154;BME280;12312;53.362;-1.518;2022-12-29T05:36:49;96652.19;;;5.86;100.00
24154;BME280;12312;53.362;-1.518;2022-12-29T05:39:15;96677.31;;;5.90;100.00
24154;BME280;12312;53.362;-1.518;2022-12-29T05:41:40;96670.09;;;5.92;100.00
24154;BME280;12312;53.362;-1.518;2022-12-29T05:44:06;96676.94;;;5.85;100.00
24154;BME280;12312;53.362;-1.518;2022-12-29T05:46:31;96671.84;;;6.01;100.00
24154;BME280;12312;53.362;-1.518;2022-12-29T05:48:57;96686.56;;;6.03;100.00
24154;BME280;12312;53.362;-1.518;2022-12-29T05:51:23;96685.44;;;6.06;100.00
24154;BME280;12312;53.362;-1.518;2022-12-29T05:53:48;96684.75;;;6.04;100.00
24154;BME280;12312;53.362;-1.518;2022-12-29T05:56:14;96693.13;;;5.90;100.00
24154;BME280;12312;53.362;-1.518;2022-12-29T05:58:39;96706.31;;;5.99;100.00
24154;BME280;12312;53.362;-1.518;2022-12-29T06:01:05;96704.94;;;5.95;100.00
24154;BME280;12312;53.362;-1.518;2022-12-29T06:03:30;96681.34;;;5.94;100.00
24154;BME280;12312;53.362;-1.518;2022-12-29T06:05:57;96708.41;;;5.96;100.00
24154;BME280;12312;53.362;-1.518;2022-12-29T06:08:23;96716.03;;;5.99;100.00
24154;BME280;12312;53.362;-1.518;2022-12-29T06:10:49;96718.38;;;6.02;100.00
24154;BME280;12312;53.362;-1.518;2022-12-29T06:13:15;96712.44;;;6.00;100.00
24154;BME280;12312;53.362;-1.518;2022-12-29T06:15:41;96722.16;;;5.99;100.00
24154;BME280;12312;53.362;-1.518;2022-12-29T06:18:07;96713.25;;;6.00;100.00
24154;BME280;12312;53.362;-1.518;2022-12-29T06:20:33;96701.88;;;6.00;100.00
24154;BME280;12312;53.362;-1.518;2022-12-29T06:22:58;96713.38;;;5.99;100.00
24154;BME280;12312;53.362;-1.518;2022-12-29T06:25:24;96721.59;;;5.96;100.00
24154;BME280;12312;53.362;-1.518;2022-12-29T06:27:50;96722.16;;;5.90;100.00
24154;BME280;12312;53.362;-1.518;2022-12-29T06:30:15;96740.25;;;5.85;100.00
24154;BME280;12312;53.362;-1.518;2022-12-29T06:32:42;96726.88;;;5.96;100.00
24154;BME280;12312;53.362;-1.518;2022-12-29T06:35:08;96739.19;;;6.05;100.00
24154;BME280;12312;53.362;-1.518;2022-12-29T06:37:34;96736.84;;;6.02;100.00
24154;BME280;12312;53.362;-1.518;2022-12-29T06:39:59;96747.69;;;5.99;100.00
24154;BME280;12312;53.362;-1.518;2022-12-29T06:42:26;96740.22;;;5.94;100.00
24154;BME280;12312;53.362;-1.518;2022-12-29T06:44:51;96742.47;;;5.89;100.00
24154;BME280;12312;53.362;-1.518;2022-12-29T06:47:17;96732.72;;;5.90;100.00
24154;BME280;12312;53.362;-1.518;2022-12-29T06:49:43;96745.25;;;5.88;100.00
24154;BME280;12312;53.362;-1.518;2022-12-29T06:52:09;96735.38;;;5.90;100.00
24154;BME280;12312;53.362;-1.518;2022-12-29T06:54:34;96733.16;;;5.85;100.00
24154;BME280;12312;53.362;-1.518;2022-12-29T06:57:00;96749.97;;;5.84;100.00
24154;BME280;12312;53.362;-1.518;2022-12-29T06:59:25;96742.97;;;6.02;100.00
24154;BME280;12312;53.362;-1.518;2022-12-29T07:01:52;96757.47;;;5.89;100.00
24154;BME280;12312;53.362;-1.518;2022-12-29T07:04:18;96755.22;;;5.75;100.00
24154;BME280;12312;53.362;-1.518;2022-12-29T07:06:44;96749.94;;;5.75;100.00
24154;BME280;12312;53.362;-1.518;2022-12-29T07:09:10;96755.38;;;5.73;100.00
24154;BME280;12312;53.362;-1.518;2022-12-29T07:11:36;96751.63;;;5.76;100.00
24154;BME280;12312;53.362;-1.518;2022-12-29T07:14:02;96757.47;;;5.70;100.00
24154;BME280;12312;53.362;-1.518;2022-12-29T07:16:31;96772.91;;;5.65;100.00
24154;BME280;12312;53.362;-1.518;2022-12-29T07:19:00;96773.31;;;5.60;100.00
24154;BME280;12312;53.362;-1.518;2022-12-29T07:21:26;96765.53;;;5.59;100.00
24154;BME280;12312;53.362;-1.518;2022-12-29T07:23:53;96762.47;;;5.63;100.00
24154;BME280;12312;53.362;-1.518;2022-12-29T07:26:19;96781.38;;;5.59;100.00
24154;BME280;12312;53.362;-1.518;2022-12-29T07:28:44;96783.72;;;5.62;100.00
24154;BME280;12312;53.362;-1.518;2022-12-29T07:31:15;96788.03;;;5.63;100.00
24154;BME280;12312;53.362;-1.518;2022-12-29T07:33:42;96790.50;;;5.54;100.00
24154;BME280;12312;53.362;-1.518;2022-12-29T07:36:09;96785.25;;;5.54;100.00
24154;BME280;12312;53.362;-1.518;2022-12-29T07:38:35;96784.84;;;5.49;100.00
24154;BME280;12312;53.362;-1.518;2022-12-29T07:41:02;96770.25;;;5.45;100.00
24154;BME280;12312;53.362;-1.518;2022-12-29T07:43:27;96787.75;;;5.46;100.00
24154;BME280;12312;53.362;-1.518;2022-12-29T07:45:53;96796.34;;;5.48;100.00
24154;BME280;12312;53.362;-1.518;2022-12-29T07:48:19;96804.97;;;5.50;100.00
24154;BME280;12312;53.362;-1.518;2022-12-29T07:50:44;96795.78;;;5.54;100.00
24154;BME280;12312;53.362;-1.518;2022-12-29T07:53:10;96831.91;;;5.54;100.00
24154;BME280;12312;53.362;-1.518;2022-12-29T07:55:36;96825.09;;;5.51;100.00
24154;BME280;12312;53.362;-1.518;2022-12-29T07:58:02;96829.53;;;5.61;100.00
24154;BME280;12312;53.362;-1.518;2022-12-29T08:00:27;96829.94;;;5.66;100.00
24154;BME280;12312;53.362;-1.518;2022-12-29T08:02:53;96838.00;;;5.64;100.00
24154;BME280;12312;53.362;-1.518;2022-12-29T08:05:19;96835.50;;;5.63;100.00
24154;BME280;12312;53.362;-1.518;2022-12-29T08:07:46;96834.13;;;5.49;100.00
24154;BME280;12312;53.362;-1.518;2022-12-29T08:10:13;96841.47;;;5.45;100.00
24154;BME280;12312;53.362;-1.518;2022-12-29T08:12:39;96847.00;;;5.42;100.00
24154;BME280;12312;53.362;-1.518;2022-12-29T08:15:06;96849.81;;;5.50;100.00
24154;BME280;12312;53.362;-1.518;2022-12-29T08:17:32;96863.53;;;5.44;100.00
24154;BME280;12312;53.362;-1.518;2022-12-29T08:19:58;96858.84;;;5.48;100.00
24154;BME280;12312;53.362;-1.518;2022-12-29T08:22:24;96869.13;;;5.51;100.00
24154;BME280;12312;53.362;-1.518;2022-12-29T08:24:49;96861.63;;;5.46;100.00
24154;BME280;12312;53.362;-1.518;2022-12-29T08:27:18;96878.81;;;5.50;100.00
24154;BME280;12312;53.362;-1.518;2022-12-29T08:29:45;96889.63;;;5.47;100.00
24154;BME280;12312;53.362;-1.518;2022-12-29T08:32:11;96886.03;;;5.48;100.00
24154;BME280;12312;53.362;-1.518;2022-12-29T08:34:37;96889.22;;;5.52;100.00
24154;BME280;12312;53.362;-1.518;2022-12-29T08:37:03;96895.75;;;5.57;100.00
24154;BME280;12312;53.362;-1.518;2022-12-29T08:39:28;96902.72;;;5.59;100.00
24154;BME280;12312;53.362;-1.518;2022-12-29T08:41:54;96902.16;;;5.65;100.00
24154;BME280;12312;53.362;-1.518;2022-12-29T08:44:21;96902.16;;;5.65;100.00
24154;BME280;12312;53.362;-1.518;2022-12-29T08:46:46;96896.31;;;5.61;100.00
24154;BME280;12312;53.362;-1.518;2022-12-29T08:49:12;96916.56;;;5.61;100.00
24154;BME280;12312;53.362;-1.518;2022-12-29T08:51:38;96920.06;;;5.61;100.00
24154;BME280;12312;53.362;-1.518;2022-12-29T08:54:03;96929.09;;;5.59;100.00
24154;BME280;12312;53.362;-1.518;2022-12-29T08:56:29;96940.06;;;5.54;100.00
24154;BME280;12312;53.362;-1.518;2022-12-29T08:58:55;96936.56;;;5.53;100.00
24154;BME280;12312;53.362;-1.518;2022-12-29T09:01:21;96951.00;;;5.49;100.00
24154;BME280;12312;53.362;-1.518;2022-12-29T09:03:47;96953.91;;;5.46;100.00
24154;BME280;12312;53.362;-1.518;2022-12-29T09:06:13;96959.06;;;5.57;100.00
24154;BME280;12312;53.362;-1.518;2022-12-29T09:08:39;96963.78;;;5.54;100.00
24154;BME280;12312;53.362;-1.518;2022-12-29T09:11:06;96972.69;;;5.63;100.00
24154;BME280;12312;53.362;-1.518;2022-12-29T09:13:32;96963.94;;;5.62;100.00
24154;BME280;12312;53.362;-1.518;2022-12-29T09:15:59;96971.84;;;5.62;100.00
24154;BME280;12312;53.362;-1.518;2022-12-29T09:18:26;96966.69;;;5.61;100.00
24154;BME280;12312;53.362;-1.518;2022-12-29T09:21:00;96969.63;;;5.57;100.00
24154;BME280;12312;53.362;-1.518;2022-12-29T09:23:27;96954.75;;;5.57;100.00
24154;BME280;12312;53.362;-1.518;2022-12-29T09:25:54;96957.84;;;5.62;100.00
24154;BME280;12312;53.362;-1.518;2022-12-29T09:28:21;96969.34;;;5.61;100.00
24154;BME280;12312;53.362;-1.518;2022-12-29T09:30:47;96957.41;;;5.57;100.00
24154;BME280;12312;53.362;-1.518;2022-12-29T09:33:13;96961.03;;;5.56;100.00
24154;BME280;12312;53.362;-1.518;2022-12-29T09:35:50;96973.94;;;5.59;98.69
24154;BME280;12312;53.362;-1.518;2022-12-29T09:38:16;96981.59;;;5.62;98.26
24154;BME280;12312;53.362;-1.518;2022-12-29T09:40:44;96983.06;;;5.54;98.62
24154;BME280;12312;53.362;-1.518;2022-12-29T09:46:28;96991.16;;;5.63;97.62
24154;BME280;12312;53.362;-1.518;2022-12-29T09:49:26;96988.25;;;5.66;97.33
24154;BME280;12312;53.362;-1.518;2022-12-29T09:51:56;97003.13;;;5.67;95.37
24154;BME280;12312;53.362;-1.518;2022-12-29T09:57:00;97015.47;;;5.66;94.28
24154;BME280;12312;53.362;-1.518;2022-12-29T09:59:39;97011.59;;;5.70;93.53
24154;BME280;12312;53.362;-1.518;2022-12-29T10:02:29;97017.97;;;5.68;94.61
24154;BME280;12312;53.362;-1.518;2022-12-29T10:04:57;97007.69;;;5.65;93.86
24154;BME280;12312;53.362;-1.518;2022-12-29T10:07:33;97010.91;;;5.68;92.65
24154;BME280;12312;53.362;-1.518;2022-12-29T10:10:13;97008.94;;;5.70;92.16
24154;BME280;12312;53.362;-1.518;2022-12-29T10:12:54;97037.16;;;5.70;93.83
24154;BME280;12312;53.362;-1.518;2022-12-29T10:15:39;97031.34;;;5.76;93.20
24154;BME280;12312;53.362;-1.518;2022-12-29T10:20:54;97031.38;;;5.85;93.24
24154;BME280;12312;53.362;-1.518;2022-12-29T10:23:28;97047.47;;;5.82;92.96
24154;BME280;12312;53.362;-1.518;2022-12-29T10:25:56;97071.31;;;5.81;93.71
24154;BME280;12312;53.362;-1.518;2022-12-29T10:28:39;97064.47;;;5.89;92.96
24154;BME280;12312;53.362;-1.518;2022-12-29T10:31:34;97053.75;;;5.91;92.21
24154;BME280;12312;53.362;-1.518;2022-12-29T10:34:05;97067.78;;;5.91;92.30
24154;BME280;12312;53.362;-1.518;2022-12-29T10:36:41;97056.13;;;5.94;92.70
24154;BME280;12312;53.362;-1.518;2022-12-29T10:39:18;97068.91;;;5.89;93.66
24154;BME280;12312;53.362;-1.518;2022-12-29T10:41:57;97066.53;;;5.86;93.94
24154;BME280;12312;53.362;-1.518;2022-12-29T10:44:28;97063.00;;;5.76;94.56
24154;BME280;12312;53.362;-1.518;2022-12-29T10:46:59;97064.66;;;5.77;95.74
24154;BME280;12312;53.362;-1.518;2022-12-29T10:49:28;97080.06;;;5.72;94.89
24154;BME280;12312;53.362;-1.518;2022-12-29T10:51:58;97069.09;;;5.76;94.34
24154;BME280;12312;53.362;-1.518;2022-12-29T10:56:58;97082.16;;;5.78;94.24
24154;BME280;12312;53.362;-1.518;2022-12-29T10:59:29;97080.44;;;5.88;94.31
24154;BME280;12312;53.362;-1.518;2022-12-29T11:07:21;97103.66;;;6.03;92.24
24154;BME280;12312;53.362;-1.518;2022-12-29T11:09:47;97099.69;;;6.28;91.03
24154;BME280;12312;53.362;-1.518;2022-12-29T11:12:33;97109.16;;;6.40;90.30
24154;BME280;12312;53.362;-1.518;2022-12-29T11:22:57;97118.78;;;5.92;92.60
24154;BME280;12312;53.362;-1.518;2022-12-29T11:25:23;97102.53;;;5.96;91.33
24154;BME280;12312;53.362;-1.518;2022-12-29T11:28:02;97120.03;;;5.88;92.20
24154;BME280;12312;53.362;-1.518;2022-12-29T11:30:31;97108.34;;;5.90;91.84
24154;BME280;12312;53.362;-1.518;2022-12-29T11:32:57;97100.28;;;5.92;90.46
24154;BME280;12312;53.362;-1.518;2022-12-29T11:38:01;97126.06;;;5.79;91.82
24154;BME280;12312;53.362;-1.518;2022-12-29T11:40:28;97117.44;;;5.77;92.16
24154;BME280;12312;53.362;-1.518;2022-12-29T11:42:56;97127.28;;;5.95;93.04
24154;BME280;12312;53.362;-1.518;2022-12-29T11:47:52;97119.59;;;6.32;89.11
24154;BME280;12312;53.362;-1.518;2022-12-29T11:50:22;97131.69;;;6.44;88.23
24154;BME280;12312;53.362;-1.518;2022-12-29T11:52:57;97117.38;;;6.46;89.23
24154;BME280;12312;53.362;-1.518;2022-12-29T11:55:25;97122.66;;;6.56;87.77
24154;BME280;12312;53.362;-1.518;2022-12-29T11:57:52;97114.06;;;6.63;87.22
24154;BME280;12312;53.362;-1.518;2022-12-29T12:00:22;97123.78;;;6.82;88.04
24154;BME280;12312;53.362;-1.518;2022-12-29T12:03:17;97130.88;;;6.91;86.53
24154;BME280;12312;53.362;-1.518;2022-12-29T12:05:56;97129.63;;;7.04;85.43
24154;BME280;12312;53.362;-1.518;2022-12-29T12:17:12;97120.59;;;6.88;86.26
24154;BME280;12312;53.362;-1.518;2022-12-29T12:19:38;97145.78;;;6.73;87.80
24154;BME280;12312;53.362;-1.518;2022-12-29T12:22:31;97143.00;;;6.74;88.29
24154;BME280;12312;53.362;-1.518;2022-12-29T12:27:38;97161.03;;;7.26;85.91
24154;BME280;12312;53.362;-1.518;2022-12-29T12:30:20;97153.69;;;6.92;86.81
24154;BME280;12312;53.362;-1.518;2022-12-29T12:35:16;97165.50;;;6.50;88.10
24154;BME280;12312;53.362;-1.518;2022-12-29T12:38:06;97157.84;;;6.47;87.98
24154;BME280;12312;53.362;-1.518;2022-12-29T12:43:34;97150.69;;;6.28;89.22
24154;BME280;12312;53.362;-1.518;2022-12-29T12:55:49;97174.59;;;6.27;89.21
24154;BME280;12312;53.362;-1.518;2022-12-29T13:00:19;97170.72;;;6.31;89.63
24154;BME280;12312;53.362;-1.518;2022-12-29T13:03:17;97169.19;;;6.28;89.09
24154;BME280;12312;53.362;-1.518;2022-12-29T13:06:18;97167.41;;;6.29;89.63
24154;BME280;12312;53.362;-1.518;2022-12-29T13:22:10;97194.63;;;6.20;90.38
24154;BME280;12312;53.362;-1.518;2022-12-29T13:27:35;97199.09;;;6.29;90.31
24154;BME280;12312;53.362;-1.518;2022-12-29T13:30:14;97195.50;;;6.39;89.57
24154;BME280;12312;53.362;-1.518;2022-12-29T13:35:54;97197.75;;;6.44;89.12
24154;BME280;12312;53.362;-1.518;2022-12-29T13:38:26;97208.31;;;6.44;87.25
24154;BME280;12312;53.362;-1.518;2022-12-29T13:41:08;97207.88;;;6.39;88.42
24154;BME280;12312;53.362;-1.518;2022-12-29T13:43:37;97215.53;;;6.42;87.16
24154;BME280;12312;53.362;-1.518;2022-12-29T13:46:15;97216.38;;;6.42;87.97
24154;BME280;12312;53.362;-1.518;2022-12-29T13:48:52;97201.06;;;6.36;87.85
24154;BME280;12312;53.362;-1.518;2022-12-29T13:51:20;97212.72;;;6.34;86.82
24154;BME280;12312;53.362;-1.518;2022-12-29T13:54:40;97219.16;;;6.41;88.11
24154;BME280;12312;53.362;-1.518;2022-12-29T13:57:18;97226.09;;;6.42;85.97
24154;BME280;12312;53.362;-1.518;2022-12-29T14:00:02;97210.41;;;6.50;86.81
24154;BME280;12312;53.362;-1.518;2022-12-29T14:07:43;97212.97;;;6.31;85.93
24154;BME280;12312;53.362;-1.518;2022-12-29T14:13:13;97212.69;;;6.24;86.81
24154;BME280;12312;53.362;-1.518;2022-12-29T14:15:47;97234.09;;;6.21;85.81
24154;BME280;12312;53.362;-1.518;2022-12-29T14:23:36;97248.91;;;6.13;86.30
24154;BME280;12312;53.362;-1.518;2022-12-29T14:31:32;97240.31;;;6.20;85.45
24154;BME280;12312;53.362;-1.518;2022-12-29T14:36:54;97231.59;;;6.20;84.74
24154;BME280;12312;53.362;-1.518;2022-12-29T14:39:42;97265.72;;;6.12;85.05
24154;BME280;12312;53.362;-1.518;2022-12-29T14:42:12;97255.63;;;6.17;84.83
24154;BME280;12312;53.362;-1.518;2022-12-29T14:44:53;97251.88;;;6.19;85.30
24154;BME280;12312;53.362;-1.518;2022-12-29T14:47:27;97248.47;;;6.08;85.04
24154;BME280;12312;53.362;-1.518;2022-12-29T14:52:30;97251.50;;;6.03;84.77
24154;BME280;12312;53.362;-1.518;2022-12-29T14:58:01;97269.94;;;5.94;86.00
24154;BME280;12312;53.362;-1.518;2022-12-29T15:00:31;97275.34;;;5.92;85.96
24154;BME280;12312;53.362;-1.518;2022-12-29T15:03:22;97292.19;;;5.80;87.32
24154;BME280;12312;53.362;-1.518;2022-12-29T15:05:53;97286.44;;;5.86;86.21
24154;BME280;12312;53.362;-1.518;2022-12-29T15:08:22;97313.91;;;5.84;87.54
24154;BME280;12312;53.362;-1.518;2022-12-29T15:11:13;97309.34;;;5.75;88.74
24154;BME280;12312;53.362;-1.518;2022-12-29T15:13:42;97295.59;;;5.71;88.17
24154;BME280;12312;53.362;-1.518;2022-12-29T15:16:25;97296.56;;;5.70;88.38
24154;BME280;12312;53.362;-1.518;2022-12-29T15:18:52;97304.84;;;5.66;89.66
24154;BME280;12312;53.362;-1.518;2022-12-29T15:21:41;97316.84;;;5.70;90.20
24154;BME280;12312;53.362;-1.518;2022-12-29T15:24:10;97317.59;;;5.61;89.09
24154;BME280;12312;53.362;-1.518;2022-12-29T15:26:46;97323.38;;;5.54;90.13
24154;BME280;12312;53.362;-1.518;2022-12-29T15:29:38;97323.13;;;5.57;90.11
24154;BME280;12312;53.362;-1.518;2022-12-29T15:32:20;97326.38;;;5.50;89.55
24154;BME280;12312;53.362;-1.518;2022-12-29T15:34:51;97340.41;;;5.50;90.55